createdAt,value
2019-02-26T00:00:27.508Z,21.10
2019-02-26T00:03:02.408Z,21.67
2019-02-26T00:05:33.176Z,22.33
2019-02-26T00:08:04.306Z,22.73
2019-02-26T00:10:37.115Z,23.50
2019-02-26T00:13:09.379Z,23.83
2019-02-26T00:15:43.035Z,23.47
2019-02-26T00:18:13.957Z,23.70
2019-02-26T00:20:46.184Z,22.83
2019-02-26T00:23:19.250Z,24.00
2019-02-26T00:25:50.246Z,22.60
2019-02-26T00:28:22.065Z,23.63
2019-02-26T00:30:55.015Z,21.30
2019-02-26T00:33:27.263Z,23.60
2019-02-26T00:35:59.065Z,22.57
2019-02-26T00:38:30.183Z,23.00
2019-02-26T00:41:02.196Z,22.40
2019-02-26T00:43:34.643Z,24.53
2019-02-26T00:46:08.569Z,22.70
2019-02-26T00:48:40.692Z,22.13
2019-02-26T00:51:12.536Z,23.13
2019-02-26T00:53:43.774Z,23.83
2019-02-26T00:56:15.003Z,24.30
2019-02-26T00:58:48.361Z,22.57
2019-02-26T01:01:21.738Z,22.67
2019-02-26T01:03:53.860Z,22.67
2019-02-26T01:06:26.760Z,22.97
2019-02-26T01:08:59.013Z,22.03
2019-02-26T01:11:30.595Z,22.77
2019-02-26T01:14:01.845Z,21.53
2019-02-26T01:16:33.035Z,21.50
2019-02-26T01:19:04.287Z,22.80
2019-02-26T01:21:36.242Z,21.67
2019-02-26T01:24:08.667Z,22.37
2019-02-26T01:26:42.530Z,21.93
2019-02-26T01:29:16.047Z,21.90
2019-02-26T01:31:45.664Z,21.90
2019-02-26T01:34:18.151Z,21.63
2019-02-26T01:36:49.677Z,23.43
2019-02-26T01:39:23.380Z,22.43
2019-02-26T01:41:56.245Z,21.93
2019-02-26T01:44:30.139Z,21.67
2019-02-26T01:47:02.521Z,22.07
2019-02-26T01:49:33.240Z,22.40
2019-02-26T01:52:06.137Z,23.10
2019-02-26T01:54:37.856Z,22.47
2019-02-26T01:57:10.270Z,24.07
2019-02-26T01:59:41.499Z,22.77
2019-02-26T02:02:17.390Z,23.63
2019-02-26T02:04:46.346Z,24.13
2019-02-26T02:07:19.018Z,22.53
2019-02-26T02:09:51.290Z,22.73
2019-02-26T02:12:25.459Z,23.27
2019-02-26T02:14:56.211Z,22.30
2019-02-26T02:17:28.822Z,23.37
2019-02-26T02:20:03.038Z,23.27
2019-02-26T02:22:35.178Z,25.60
2019-02-26T02:25:07.666Z,24.67
2019-02-26T02:27:38.833Z,23.67
2019-02-26T02:30:17.917Z,23.07
2019-02-26T02:32:48.195Z,23.80
2019-02-26T02:35:19.255Z,24.93
2019-02-26T02:37:53.552Z,25.30
2019-02-26T02:40:24.571Z,24.97
2019-02-26T02:42:55.752Z,24.50
2019-02-26T02:45:27.016Z,25.87
2019-02-26T02:48:00.585Z,25.30
2019-02-26T02:50:42.870Z,25.40
2019-02-26T02:53:14.072Z,26.23
2019-02-26T02:55:46.957Z,25.83
2019-02-26T02:58:20.726Z,27.17
2019-02-26T03:00:52.239Z,26.53
2019-02-26T03:03:23.643Z,26.40
2019-02-26T03:05:54.978Z,25.27
2019-02-26T03:08:26.197Z,25.40
2019-02-26T03:10:57.409Z,26.63
2019-02-26T03:13:28.653Z,25.30
2019-02-26T03:16:01.636Z,25.53
2019-02-26T03:18:32.738Z,25.50
2019-02-26T03:21:04.807Z,26.03
2019-02-26T03:23:37.936Z,24.50
2019-02-26T03:26:12.579Z,26.10
2019-02-26T03:28:42.124Z,25.23
2019-02-26T03:31:14.837Z,26.03
2019-02-26T03:33:46.191Z,26.07
2019-02-26T03:36:19.256Z,26.90
2019-02-26T03:38:53.743Z,27.77
2019-02-26T03:41:26.152Z,25.40
2019-02-26T03:43:58.586Z,26.03
2019-02-26T03:46:30.100Z,26.93
2019-02-26T03:49:02.682Z,27.53
2019-02-26T03:51:39.053Z,27.17
2019-02-26T03:54:07.080Z,27.97
2019-02-26T03:56:38.384Z,27.63
2019-02-26T03:59:11.795Z,27.13
2019-02-26T04:01:42.385Z,25.53
2019-02-26T04:04:13.604Z,27.80
2019-02-26T04:06:46.973Z,27.63
2019-02-26T04:09:19.615Z,26.60
2019-02-26T04:11:52.929Z,26.87
2019-02-26T04:14:25.589Z,27.03
2019-02-26T04:16:58.665Z,27.30
2019-02-26T04:19:29.187Z,27.60
2019-02-26T04:22:34.619Z,28.17
2019-02-26T04:25:35.469Z,26.33
2019-02-26T04:28:30.708Z,25.73
2019-02-26T04:31:31.657Z,28.37
2019-02-26T04:34:59.156Z,26.77
2019-02-26T04:38:33.630Z,25.37
2019-02-26T04:41:24.816Z,26.07
2019-02-26T04:44:35.085Z,26.80
2019-02-26T04:47:15.290Z,27.83
2019-02-26T04:49:46.540Z,27.70
2019-02-26T04:52:17.815Z,25.13
2019-02-26T04:54:50.205Z,27.23
2019-02-26T04:57:21.407Z,27.87
2019-02-26T04:59:52.618Z,28.37
2019-02-26T05:02:24.124Z,28.13
2019-02-26T05:04:55.275Z,27.20
2019-02-26T05:07:26.499Z,27.50
2019-02-26T05:09:59.419Z,28.73
2019-02-26T05:12:33.414Z,29.27
2019-02-26T05:15:03.321Z,28.57
2019-02-26T05:17:34.505Z,29.30
2019-02-26T05:20:07.168Z,28.20
2019-02-26T05:22:38.620Z,28.93
2019-02-26T05:25:13.374Z,31.10
2019-02-26T05:27:46.032Z,29.17
2019-02-26T05:30:19.241Z,29.33
2019-02-26T05:32:51.090Z,30.57
2019-02-26T05:35:23.400Z,29.77
2019-02-26T05:37:56.174Z,30.57
2019-02-26T05:40:27.420Z,30.60
2019-02-26T05:42:59.297Z,28.77
2019-02-26T05:45:33.062Z,32.40
2019-02-26T05:48:04.316Z,29.63
2019-02-26T05:50:38.670Z,32.33
2019-02-26T05:53:10.450Z,32.67
2019-02-26T05:55:42.249Z,33.03
2019-02-26T05:58:16.392Z,31.03
2019-02-26T06:00:46.996Z,31.13
2019-02-26T06:03:18.829Z,32.30
2019-02-26T06:05:51.993Z,34.00
2019-02-26T06:08:29.112Z,32.87
2019-02-26T06:10:56.933Z,35.27
2019-02-26T06:13:29.171Z,34.23
2019-02-26T06:16:02.293Z,32.97
2019-02-26T06:18:33.840Z,33.60
2019-02-26T06:21:05.044Z,34.43
2019-02-26T06:23:36.722Z,32.17
2019-02-26T06:26:14.268Z,34.10
2019-02-26T06:28:43.559Z,33.90
2019-02-26T06:31:17.465Z,35.07
2019-02-26T06:33:50.509Z,35.97
2019-02-26T06:36:23.325Z,36.80
2019-02-26T06:38:56.434Z,35.50
2019-02-26T06:41:28.072Z,36.93
2019-02-26T06:43:59.268Z,36.40
2019-02-26T06:46:31.928Z,35.90
2019-02-26T06:49:03.232Z,35.50
2019-02-26T06:51:34.505Z,36.73
2019-02-26T06:54:05.820Z,36.30
2019-02-26T06:56:41.502Z,38.07
2019-02-26T06:59:12.258Z,36.80
2019-02-26T07:01:43.359Z,35.53
2019-02-26T07:04:14.458Z,36.27
2019-02-26T07:06:45.663Z,37.50
2019-02-26T07:09:18.227Z,38.23
2019-02-26T07:11:49.680Z,38.90
2019-02-26T07:14:22.443Z,38.70
2019-02-26T07:16:53.709Z,41.50
2019-02-26T07:19:26.197Z,38.43
2019-02-26T07:21:57.693Z,40.73
2019-02-26T07:24:28.866Z,39.17
2019-02-26T07:27:01.977Z,39.33
2019-02-26T07:29:35.199Z,36.17
2019-02-26T07:32:05.716Z,39.17
2019-02-26T07:34:37.449Z,39.43
2019-02-26T07:37:09.331Z,40.40
2019-02-26T07:39:42.049Z,40.23
2019-02-26T07:42:16.426Z,39.87
2019-02-26T07:44:47.234Z,41.07
2019-02-26T07:47:18.533Z,38.07
2019-02-26T07:49:49.738Z,40.97
2019-02-26T07:52:21.580Z,39.73
2019-02-26T07:54:53.950Z,38.70
2019-02-26T07:57:27.527Z,40.37
2019-02-26T07:59:58.020Z,42.03
2019-02-26T08:02:30.661Z,42.73
2019-02-26T08:05:03.138Z,42.53
2019-02-26T08:07:34.364Z,41.27
2019-02-26T08:10:08.118Z,38.87
2019-02-26T08:12:42.704Z,41.23
2019-02-26T08:15:16.070Z,40.33
2019-02-26T08:17:50.318Z,40.10
2019-02-26T08:20:20.123Z,42.37
2019-02-26T08:22:52.243Z,41.17
2019-02-26T08:25:24.164Z,41.77
2019-02-26T08:27:56.514Z,38.83
2019-02-26T08:30:28.367Z,39.33
2019-02-26T08:33:02.009Z,41.00
2019-02-26T08:35:32.435Z,39.00
2019-02-26T08:38:05.674Z,39.97
2019-02-26T08:40:37.658Z,39.83
2019-02-26T08:43:08.964Z,39.30
2019-02-26T08:45:40.177Z,39.00
2019-02-26T08:48:14.669Z,42.60
2019-02-26T08:50:46.206Z,41.07
2019-02-26T08:53:17.239Z,40.23
2019-02-26T08:55:48.397Z,39.53
2019-02-26T08:58:19.629Z,41.23
2019-02-26T09:00:50.815Z,39.53
2019-02-26T09:03:22.061Z,40.07
2019-02-26T09:05:53.919Z,41.00
2019-02-26T09:08:26.154Z,39.43
2019-02-26T09:10:57.409Z,38.23
2019-02-26T09:13:28.703Z,39.67
2019-02-26T09:16:01.071Z,42.17
2019-02-26T09:18:37.548Z,41.67
2019-02-26T09:21:07.091Z,39.30
2019-02-26T09:23:38.633Z,39.07
2019-02-26T09:26:09.908Z,40.10
2019-02-26T09:28:41.147Z,38.87
2019-02-26T09:31:14.068Z,41.47
2019-02-26T09:33:45.625Z,39.43
2019-02-26T09:36:20.497Z,39.63
2019-02-26T09:38:51.467Z,38.97
2019-02-26T09:41:22.736Z,37.50
2019-02-26T09:43:53.884Z,40.40
2019-02-26T09:46:25.143Z,38.23
2019-02-26T09:48:57.914Z,38.90
2019-02-26T09:51:31.159Z,40.83
2019-02-26T09:54:03.045Z,39.33
2019-02-26T09:56:34.242Z,39.37
2019-02-26T09:59:07.034Z,41.77
2019-02-26T10:01:40.189Z,38.10
2019-02-26T10:04:11.103Z,38.70
2019-02-26T10:06:42.998Z,39.23
2019-02-26T10:09:16.212Z,37.43
2019-02-26T10:11:49.311Z,39.13
2019-02-26T10:14:20.754Z,38.53
2019-02-26T10:16:54.232Z,39.13
2019-02-26T10:19:24.681Z,36.43
2019-02-26T10:21:57.392Z,38.47
2019-02-26T10:24:30.218Z,37.60
2019-02-26T10:27:05.395Z,39.70
2019-02-26T10:29:36.605Z,38.67
2019-02-26T10:32:11.208Z,36.43
2019-02-26T10:34:40.052Z,38.90
2019-02-26T10:37:11.364Z,37.50
2019-02-26T10:39:44.367Z,38.37
2019-02-26T10:42:18.063Z,36.33
2019-02-26T10:44:48.343Z,35.67
2019-02-26T10:47:19.577Z,37.97
2019-02-26T10:49:51.891Z,38.87
2019-02-26T10:52:24.609Z,36.83
2019-02-26T10:54:56.489Z,36.17
2019-02-26T10:57:28.874Z,36.33
2019-02-26T11:00:02.701Z,35.40
2019-02-26T11:02:34.992Z,34.63
2019-02-26T11:05:08.632Z,34.70
2019-02-26T11:07:40.177Z,33.90
2019-02-26T11:10:12.453Z,32.33
2019-02-26T11:12:45.794Z,32.83
2019-02-26T11:15:17.445Z,32.33
2019-02-26T11:17:51.305Z,32.20
2019-02-26T11:20:22.354Z,30.27
2019-02-26T11:22:54.352Z,30.00
2019-02-26T11:25:27.319Z,30.03
2019-02-26T11:28:00.596Z,29.00
2019-02-26T11:30:32.258Z,32.37
2019-02-26T11:33:06.110Z,29.43
2019-02-26T11:35:36.375Z,30.77
2019-02-26T11:38:09.316Z,31.27
2019-02-26T11:40:40.430Z,29.77
2019-02-26T11:43:14.422Z,29.67
2019-02-26T11:45:44.594Z,29.40
2019-02-26T11:48:17.546Z,34.07
2019-02-26T11:50:49.051Z,29.10
2019-02-26T11:53:20.262Z,29.50
2019-02-26T11:55:52.715Z,28.13
2019-02-26T11:58:25.363Z,28.00
2019-02-26T12:00:58.933Z,28.57
2019-02-26T12:03:33.152Z,27.57
2019-02-26T12:06:03.030Z,26.87
2019-02-26T12:08:34.218Z,25.70
2019-02-26T12:11:06.803Z,25.50
2019-02-26T12:13:39.508Z,22.57
2019-02-26T12:16:11.473Z,25.17
2019-02-26T12:18:44.356Z,24.53
2019-02-26T12:21:15.454Z,24.30
2019-02-26T12:23:46.847Z,24.50
2019-02-26T12:26:19.162Z,25.33
2019-02-26T12:28:52.360Z,25.73
2019-02-26T12:31:25.306Z,31.00
2019-02-26T12:33:56.471Z,30.27
2019-02-26T12:36:29.935Z,30.13
2019-02-26T12:39:02.497Z,31.07
2019-02-26T12:41:36.581Z,29.83
2019-02-26T12:44:10.863Z,31.77
2019-02-26T12:46:40.624Z,32.53
2019-02-26T12:49:12.692Z,31.90
2019-02-26T12:51:44.727Z,31.97
2019-02-26T12:54:15.916Z,33.73
2019-02-26T12:56:49.042Z,31.93
2019-02-26T12:59:20.142Z,29.80
2019-02-26T13:01:51.965Z,31.97
2019-02-26T13:04:25.066Z,34.57
2019-02-26T13:06:56.212Z,33.97
2019-02-26T13:09:27.421Z,38.00
2019-02-26T13:12:02.582Z,37.07
2019-02-26T13:14:31.708Z,33.80
2019-02-26T13:17:02.983Z,36.93
2019-02-26T13:19:36.933Z,40.80
2019-02-26T13:22:09.705Z,33.13
2019-02-26T13:24:40.023Z,33.90
2019-02-26T13:27:11.271Z,36.60
2019-02-26T13:29:47.617Z,33.90
2019-02-26T13:32:17.567Z,34.13
2019-02-26T13:34:48.268Z,34.17
2019-02-26T13:37:34.670Z,32.97
2019-02-26T13:40:04.438Z,31.87
2019-02-26T13:42:35.873Z,33.27
2019-02-26T13:45:08.760Z,30.20
2019-02-26T13:47:40.013Z,31.60
2019-02-26T13:50:13.600Z,31.00
2019-02-26T13:52:45.900Z,31.03
2019-02-26T13:55:17.157Z,27.80
2019-02-26T13:57:48.518Z,26.90
2019-02-26T14:00:26.298Z,30.70
2019-02-26T14:02:53.026Z,23.43
2019-02-26T14:05:24.361Z,19.77
2019-02-26T14:07:55.612Z,21.30
2019-02-26T14:10:29.495Z,21.90
2019-02-26T14:13:00.772Z,21.13
2019-02-26T14:15:32.163Z,23.70
2019-02-26T14:18:03.519Z,23.27
2019-02-26T14:20:34.870Z,25.00
2019-02-26T14:23:06.080Z,23.80
2019-02-26T14:25:37.307Z,23.57
2019-02-26T14:28:08.583Z,23.47
2019-02-26T14:30:39.816Z,24.00
2019-02-26T14:33:11.013Z,25.53
2019-02-26T14:35:43.376Z,23.80
2019-02-26T14:38:14.703Z,23.83
2019-02-26T14:40:46.177Z,24.40
2019-02-26T14:43:18.581Z,25.70
2019-02-26T14:45:49.877Z,26.63
2019-02-26T14:48:21.199Z,24.57
2019-02-26T14:50:52.597Z,25.73
2019-02-26T14:53:23.980Z,27.13
2019-02-26T14:56:05.182Z,26.13
2019-02-26T14:58:36.734Z,25.60
2019-02-26T15:01:08.019Z,25.90
2019-02-26T15:03:39.377Z,27.93
2019-02-26T15:06:10.622Z,26.93
2019-02-26T15:08:42.165Z,25.67
2019-02-26T15:11:13.441Z,26.97
2019-02-26T15:13:44.743Z,25.27
2019-02-26T15:16:16.033Z,27.37
2019-02-26T15:18:47.255Z,27.53
2019-02-26T15:21:18.606Z,27.40
2019-02-26T15:23:50.410Z,26.73
2019-02-26T15:26:22.235Z,26.30
2019-02-26T15:28:53.700Z,26.90
2019-02-26T15:31:25.042Z,26.90
2019-02-26T15:33:56.855Z,25.33
2019-02-26T15:36:28.039Z,26.33
2019-02-26T15:38:59.307Z,26.00
2019-02-26T15:41:30.537Z,27.90
2019-02-26T15:44:01.860Z,27.03
2019-02-26T15:46:33.083Z,25.90
2019-02-26T15:49:07.312Z,27.40
2019-02-26T15:51:37.298Z,29.57
2019-02-26T15:54:08.609Z,26.87
2019-02-26T15:56:40.050Z,27.53
2019-02-26T15:59:11.271Z,29.20
2019-02-26T16:01:42.492Z,29.20
2019-02-26T16:04:13.715Z,28.70
2019-02-26T16:06:45.026Z,25.43
2019-02-26T16:09:16.634Z,30.67
2019-02-26T16:11:47.882Z,30.30
2019-02-26T16:14:19.174Z,34.47
2019-02-26T16:16:50.431Z,34.60
2019-02-26T16:19:22.110Z,32.80
2019-02-26T16:21:53.434Z,32.23
2019-02-26T16:24:24.708Z,31.90
2019-02-26T16:26:55.914Z,34.03
2019-02-26T16:29:27.097Z,34.93
2019-02-26T16:31:58.379Z,39.17
2019-02-26T16:34:29.563Z,37.37
2019-02-26T16:37:03.307Z,38.27
2019-02-26T16:39:33.595Z,46.03
2019-02-26T16:42:04.800Z,43.00
2019-02-26T16:44:36.015Z,43.83
2019-02-26T16:47:07.603Z,39.87
2019-02-26T16:49:38.782Z,39.67
2019-02-26T16:52:10.630Z,39.00
2019-02-26T16:54:41.813Z,41.40
2019-02-26T16:57:13.028Z,37.57
2019-02-26T16:59:44.225Z,40.57
2019-02-26T17:02:15.753Z,40.80
2019-02-26T17:04:47.002Z,39.70
2019-02-26T17:07:18.234Z,39.67
2019-02-26T17:09:49.439Z,37.83
2019-02-26T17:12:20.642Z,37.70
2019-02-26T17:14:52.078Z,39.00
2019-02-26T17:17:23.237Z,38.40
2019-02-26T17:19:54.477Z,39.87
2019-02-26T17:22:25.756Z,38.63
2019-02-26T17:24:57.285Z,40.73
2019-02-26T17:27:28.878Z,42.93
2019-02-26T17:30:00.831Z,49.87
2019-02-26T17:32:35.695Z,48.87
2019-02-26T17:35:07.521Z,47.23
2019-02-26T17:37:41.615Z,47.43
2019-02-26T17:40:13.627Z,45.20
2019-02-26T17:42:44.883Z,44.90
2019-02-26T17:45:18.286Z,42.20
2019-02-26T17:47:49.571Z,42.67
2019-02-26T17:50:23.558Z,42.77
2019-02-26T17:52:54.754Z,43.83
2019-02-26T17:55:26.403Z,40.13
2019-02-26T17:57:57.603Z,42.63
2019-02-26T18:00:29.610Z,44.07
2019-02-26T18:03:00.840Z,46.63
2019-02-26T18:05:32.448Z,48.30
2019-02-26T18:08:04.737Z,45.93
2019-02-26T18:10:42.289Z,51.03
2019-02-26T18:13:15.078Z,56.00
2019-02-26T18:15:46.626Z,53.17
2019-02-26T18:18:18.058Z,56.30
2019-02-26T18:20:50.091Z,52.77
2019-02-26T18:23:21.403Z,48.73
2019-02-26T18:25:53.067Z,54.47
2019-02-26T18:28:24.354Z,50.70
2019-02-26T18:30:55.742Z,55.03
2019-02-26T18:33:26.983Z,57.00
2019-02-26T18:35:59.352Z,55.13
2019-02-26T18:38:31.643Z,54.27
2019-02-26T18:41:03.010Z,56.70
2019-02-26T18:43:34.691Z,53.30
2019-02-26T18:46:06.110Z,56.20
2019-02-26T18:48:37.329Z,56.77
2019-02-26T18:51:09.120Z,53.13
2019-02-26T18:53:40.648Z,53.23
2019-02-26T18:56:12.049Z,54.63
2019-02-26T18:58:43.415Z,51.87
2019-02-26T19:01:14.845Z,52.83
2019-02-26T19:03:46.275Z,52.53
2019-02-26T19:06:18.026Z,50.57
2019-02-26T19:08:49.326Z,51.00
2019-02-26T19:11:20.836Z,51.03
2019-02-26T19:13:53.453Z,47.40
2019-02-26T19:16:25.882Z,45.47
2019-02-26T19:18:57.206Z,45.50
2019-02-26T19:21:31.540Z,45.37
2019-02-26T19:24:04.568Z,45.03
2019-02-26T19:26:35.751Z,44.33
2019-02-26T19:29:07.017Z,48.93
2019-02-26T19:31:42.403Z,44.70
2019-02-26T19:34:12.298Z,45.33
2019-02-26T19:36:45.686Z,44.57
2019-02-26T19:39:16.888Z,46.03
2019-02-26T19:41:48.135Z,47.60
2019-02-26T19:44:19.410Z,47.90
2019-02-26T19:46:51.262Z,48.60
2019-02-26T19:49:22.640Z,47.17
2019-02-26T19:51:53.891Z,48.30
2019-02-26T19:54:25.177Z,45.17
2019-02-26T19:56:57.055Z,46.47
2019-02-26T19:59:29.123Z,43.20
2019-02-26T20:02:00.350Z,46.20
2019-02-26T20:04:31.657Z,46.27
2019-02-26T20:07:02.818Z,44.70
2019-02-26T20:09:34.201Z,46.73
2019-02-26T20:12:05.632Z,47.07
2019-02-26T20:14:36.853Z,47.77
2019-02-26T20:17:14.717Z,47.33
2019-02-26T20:19:41.167Z,76.23
2019-02-26T20:22:12.682Z,49.33
2019-02-26T20:24:44.176Z,47.03
2019-02-26T20:27:15.656Z,47.17
2019-02-26T20:29:46.957Z,47.43
2019-02-26T20:32:18.348Z,48.17
2019-02-26T20:34:49.784Z,47.33
2019-02-26T20:37:21.979Z,49.17
2019-02-26T20:39:54.454Z,46.30
2019-02-26T20:42:26.827Z,48.37
2019-02-26T20:44:59.255Z,50.40
2019-02-26T20:47:31.638Z,46.40
2019-02-26T20:50:04.293Z,50.33
2019-02-26T20:52:35.659Z,51.47
2019-02-26T20:55:08.430Z,51.33
2019-02-26T20:57:39.698Z,51.30
2019-02-26T21:00:16.406Z,53.07
2019-02-26T21:02:47.941Z,54.37
2019-02-26T21:05:19.437Z,49.80
2019-02-26T21:07:51.754Z,53.30
2019-02-26T21:10:23.143Z,50.50
2019-02-26T21:12:55.422Z,49.57
2019-02-26T21:15:26.686Z,48.43
2019-02-26T21:17:58.608Z,47.20
2019-02-26T21:20:30.047Z,46.87
2019-02-26T21:23:01.333Z,46.37
2019-02-26T21:25:32.590Z,45.27
2019-02-26T21:28:03.819Z,46.37
2019-02-26T21:30:37.265Z,44.33
2019-02-26T21:33:08.505Z,42.83
2019-02-26T21:35:39.737Z,39.83
2019-02-26T21:38:13.055Z,40.63
2019-02-26T21:40:44.062Z,41.83
2019-02-26T21:43:15.354Z,39.47
2019-02-26T21:45:49.114Z,40.70
2019-02-26T21:48:19.536Z,42.07
2019-02-26T21:50:54.529Z,42.47
2019-02-26T21:53:23.763Z,42.40
2019-02-26T21:55:55.629Z,43.00
2019-02-26T21:58:27.424Z,44.83
2019-02-26T22:00:58.765Z,47.13
2019-02-26T22:03:30.010Z,49.43
2019-02-26T22:06:05.281Z,53.07
2019-02-26T22:08:34.223Z,56.67
2019-02-26T22:11:05.424Z,57.77
2019-02-26T22:13:36.740Z,59.30
2019-02-26T22:16:07.952Z,64.03
2019-02-26T22:18:39.177Z,67.97
2019-02-26T22:21:10.422Z,62.53
2019-02-26T22:23:41.633Z,61.23
2019-02-26T22:26:12.812Z,67.83
2019-02-26T22:28:44.032Z,69.03
2019-02-26T22:31:15.249Z,65.30
2019-02-26T22:33:46.506Z,70.87
2019-02-26T22:36:18.769Z,69.33
2019-02-26T22:38:49.995Z,77.83
2019-02-26T22:41:21.175Z,66.10
2019-02-26T22:43:52.371Z,65.47
2019-02-26T22:46:23.637Z,67.83
2019-02-26T22:48:54.857Z,65.30
2019-02-26T22:51:26.070Z,63.47
2019-02-26T22:53:57.281Z,64.07
2019-02-26T22:56:28.478Z,61.00
2019-02-26T22:58:59.793Z,58.33
2019-02-26T23:01:37.233Z,59.13
2019-02-26T23:04:09.043Z,56.83
2019-02-26T23:06:40.290Z,62.23
2019-02-26T23:09:17.631Z,62.27
2019-02-26T23:11:48.209Z,62.47
2019-02-26T23:14:19.583Z,63.57
2019-02-26T23:16:52.169Z,57.90
2019-02-26T23:19:24.723Z,61.07
2019-02-26T23:21:56.162Z,50.43
2019-02-26T23:24:29.336Z,50.43
2019-02-26T23:27:01.230Z,48.10
2019-02-26T23:29:32.570Z,46.67
2019-02-26T23:32:06.103Z,46.70
2019-02-26T23:34:37.524Z,52.13
2019-02-26T23:37:09.238Z,46.57
2019-02-26T23:39:40.508Z,49.23
2019-02-26T23:42:11.910Z,58.10
2019-02-26T23:44:43.139Z,64.20
2019-02-26T23:47:14.328Z,67.00
2019-02-26T23:49:47.665Z,69.67
2019-02-26T23:52:18.337Z,78.37
2019-02-26T23:54:49.501Z,77.60
2019-02-26T23:57:22.720Z,83.37
2019-02-26T23:59:54.628Z,78.77
